sensor_id;sensor_type;location;lat;lon;timestamp;P1;durP1;ratioP1;P2;durP2;ratioP2
51314;SDS011;65787;59.922;10.742;2023-02-28T21:09:28;341.65;;;83.30;;
51314;SDS011;65787;59.922;10.742;2023-02-28T21:11:54;202.45;;;54.47;;
51314;SDS011;65787;59.922;10.742;2023-02-28T21:14:19;225.43;;;60.38;;
51314;SDS011;65787;59.922;10.742;2023-02-28T21:16:45;195.48;;;58.67;;
51314;SDS011;65787;59.922;10.742;2023-02-28T21:19:11;206.90;;;58.47;;
51314;SDS011;65787;59.922;10.742;2023-02-28T21:21:39;201.43;;;55.40;;
51314;SDS011;65787;59.922;10.742;2023-02-28T21:24:18;192.02;;;57.03;;
51314;SDS011;65787;59.922;10.742;2023-02-28T21:26:44;186.32;;;53.28;;
51314;SDS011;65787;59.922;10.742;2023-02-28T21:29:11;181.15;;;54.30;;
51314;SDS011;65787;59.922;10.742;2023-02-28T21:31:37;164.63;;;50.67;;
51314;SDS011;65787;59.922;10.742;2023-02-28T21:34:04;154.77;;;46.03;;
51314;SDS011;65787;59.922;10.742;2023-02-28T21:36:34;142.65;;;45.47;;
51314;SDS011;65787;59.922;10.742;2023-02-28T21:39:03;150.75;;;45.22;;
51314;SDS011;65787;59.922;10.742;2023-02-28T21:41:36;143.85;;;45.80;;
51314;SDS011;65787;59.922;10.742;2023-02-28T21:44:02;140.02;;;43.30;;
51314;SDS011;65787;59.922;10.742;2023-02-28T21:46:28;140.35;;;43.95;;
51314;SDS011;65787;59.922;10.742;2023-02-28T21:48:54;122.60;;;40.13;;
51314;SDS011;65787;59.922;10.742;2023-02-28T21:51:23;125.72;;;40.42;;
51314;SDS011;65787;59.922;10.742;2023-02-28T21:53:52;111.85;;;38.85;;
51314;SDS011;65787;59.922;10.742;2023-02-28T21:56:20;114.50;;;38.13;;
51314;SDS011;65787;59.922;10.742;2023-02-28T21:58:47;113.15;;;36.25;;
51314;SDS011;65787;59.922;10.742;2023-02-28T22:01:20;98.35;;;35.08;;
51314;SDS011;65787;59.922;10.742;2023-02-28T22:03:47;107.10;;;34.57;;
51314;SDS011;65787;59.922;10.742;2023-02-28T22:06:14;101.88;;;33.58;;
51314;SDS011;65787;59.922;10.742;2023-02-28T22:08:46;104.18;;;32.42;;
51314;SDS011;65787;59.922;10.742;2023-02-28T22:11:14;98.53;;;32.22;;
51314;SDS011;65787;59.922;10.742;2023-02-28T22:13:40;92.30;;;31.00;;
51314;SDS011;65787;59.922;10.742;2023-02-28T22:16:07;89.38;;;29.70;;
51314;SDS011;65787;59.922;10.742;2023-02-28T22:18:36;80.68;;;27.92;;
51314;SDS011;65787;59.922;10.742;2023-02-28T22:21:01;70.05;;;27.42;;
51314;SDS011;65787;59.922;10.742;2023-02-28T22:23:27;81.07;;;27.63;;
51314;SDS011;65787;59.922;10.742;2023-02-28T22:25:53;77.10;;;26.77;;
51314;SDS011;65787;59.922;10.742;2023-02-28T22:28:20;66.63;;;24.65;;
51314;SDS011;65787;59.922;10.742;2023-02-28T22:30:47;77.00;;;26.83;;
51314;SDS011;65787;59.922;10.742;2023-02-28T22:33:14;71.55;;;24.13;;
51314;SDS011;65787;59.922;10.742;2023-02-28T22:35:41;72.85;;;24.10;;
51314;SDS011;65787;59.922;10.742;2023-02-28T22:38:07;57.88;;;22.60;;
51314;SDS011;65787;59.922;10.742;2023-02-28T22:40:34;57.63;;;22.05;;
51314;SDS011;65787;59.922;10.742;2023-02-28T22:43:00;52.25;;;21.27;;
51314;SDS011;65787;59.922;10.742;2023-02-28T22:45:25;52.45;;;20.90;;
51314;SDS011;65787;59.922;10.742;2023-02-28T22:47:51;56.45;;;21.55;;
51314;SDS011;65787;59.922;10.742;2023-02-28T22:50:16;60.63;;;20.42;;
51314;SDS011;65787;59.922;10.742;2023-02-28T22:52:42;54.55;;;19.00;;
51314;SDS011;65787;59.922;10.742;2023-02-28T22:55:08;53.30;;;18.88;;
51314;SDS011;65787;59.922;10.742;2023-02-28T22:57:34;45.40;;;17.23;;
51314;SDS011;65787;59.922;10.742;2023-02-28T23:00:01;47.70;;;16.80;;
51314;SDS011;65787;59.922;10.742;2023-02-28T23:02:31;43.92;;;16.63;;
51314;SDS011;65787;59.922;10.742;2023-02-28T23:04:56;42.42;;;16.65;;
51314;SDS011;65787;59.922;10.742;2023-02-28T23:07:22;44.47;;;16.77;;
51314;SDS011;65787;59.922;10.742;2023-02-28T23:09:48;40.65;;;15.65;;
51314;SDS011;65787;59.922;10.742;2023-02-28T23:12:15;39.22;;;14.75;;
51314;SDS011;65787;59.922;10.742;2023-02-28T23:14:41;36.45;;;14.80;;
51314;SDS011;65787;59.922;10.742;2023-02-28T23:17:07;35.28;;;13.93;;
51314;SDS011;65787;59.922;10.742;2023-02-28T23:19:32;41.80;;;13.50;;
51314;SDS011;65787;59.922;10.742;2023-02-28T23:21:58;26.67;;;12.50;;
51314;SDS011;65787;59.922;10.742;2023-02-28T23:24:25;29.73;;;12.55;;
51314;SDS011;65787;59.922;10.742;2023-02-28T23:26:53;34.75;;;11.80;;
51314;SDS011;65787;59.922;10.742;2023-02-28T23:29:20;37.75;;;12.35;;
51314;SDS011;65787;59.922;10.742;2023-02-28T23:31:49;28.70;;;11.20;;
51314;SDS011;65787;59.922;10.742;2023-02-28T23:34:14;26.15;;;11.32;;
51314;SDS011;65787;59.922;10.742;2023-02-28T23:36:41;27.33;;;10.60;;
51314;SDS011;65787;59.922;10.742;2023-02-28T23:39:09;25.33;;;10.10;;
51314;SDS011;65787;59.922;10.742;2023-02-28T23:41:36;28.75;;;10.45;;
51314;SDS011;65787;59.922;10.742;2023-02-28T23:44:01;24.30;;;10.15;;
51314;SDS011;65787;59.922;10.742;2023-02-28T23:46:28;26.25;;;10.18;;
51314;SDS011;65787;59.922;10.742;2023-02-28T23:48:53;24.58;;;9.88;;
51314;SDS011;65787;59.922;10.742;2023-02-28T23:51:20;21.30;;;9.25;;
